createdAt,value
2017-11-30T00:02:22.415Z,64.60
2017-11-30T00:04:49.990Z,64.40
2017-11-30T00:07:17.536Z,64.60
2017-11-30T00:09:45.135Z,64.60
2017-11-30T00:12:12.672Z,64.70
2017-11-30T00:14:40.172Z,64.90
2017-11-30T00:17:07.709Z,64.90
2017-11-30T00:19:36.244Z,65.00
2017-11-30T00:22:04.761Z,64.60
2017-11-30T00:24:32.297Z,64.60
2017-11-30T00:27:00.066Z,64.60
2017-11-30T00:29:27.595Z,64.40
2017-11-30T00:31:55.134Z,64.20
2017-11-30T00:34:22.713Z,64.70
2017-11-30T00:36:50.272Z,64.60
2017-11-30T00:39:18.120Z,64.50
2017-11-30T00:41:45.675Z,64.50
2017-11-30T00:44:25.108Z,64.50
2017-11-30T00:46:52.644Z,64.60
2017-11-30T00:49:20.240Z,64.80
2017-11-30T00:51:47.837Z,64.60
2017-11-30T00:54:15.353Z,64.80
2017-11-30T00:56:42.892Z,64.40
2017-11-30T00:59:10.414Z,64.40
2017-11-30T01:01:38.623Z,64.70
2017-11-30T01:04:06.149Z,64.50
2017-11-30T01:06:34.032Z,64.60
2017-11-30T01:09:01.565Z,64.50
2017-11-30T01:11:29.112Z,64.50
2017-11-30T01:13:56.672Z,64.40
2017-11-30T01:16:24.203Z,64.30
2017-11-30T01:18:51.782Z,64.40
2017-11-30T01:21:28.186Z,64.50
2017-11-30T01:23:56.470Z,64.60
2017-11-30T01:26:25.424Z,64.50
2017-11-30T01:28:53.847Z,64.90
2017-11-30T01:31:22.316Z,64.80
2017-11-30T01:33:49.899Z,64.90
2017-11-30T01:36:17.470Z,64.60
2017-11-30T01:38:44.972Z,64.70
2017-11-30T01:41:12.689Z,64.80
2017-11-30T01:43:40.257Z,65.20
2017-11-30T01:46:07.849Z,64.90
2017-11-30T01:48:36.154Z,65.00
2017-11-30T01:51:03.668Z,65.00
2017-11-30T01:53:31.262Z,65.10
2017-11-30T01:55:58.766Z,65.40
2017-11-30T01:58:26.294Z,65.40
2017-11-30T02:00:53.879Z,65.50
2017-11-30T02:03:21.400Z,65.50
2017-11-30T02:05:48.952Z,65.80
2017-11-30T02:08:16.626Z,65.80
2017-11-30T02:10:44.226Z,66.10
2017-11-30T02:13:11.756Z,66.20
2017-11-30T02:15:39.372Z,66.30
2017-11-30T02:18:06.970Z,66.10
2017-11-30T02:20:34.530Z,65.90
2017-11-30T02:23:02.395Z,65.90
2017-11-30T02:25:29.949Z,66.00
2017-11-30T02:27:57.531Z,66.10
2017-11-30T02:30:25.414Z,66.10
2017-11-30T02:32:53.958Z,66.10
2017-11-30T02:35:21.727Z,65.90
2017-11-30T02:37:50.023Z,66.10
2017-11-30T02:40:18.407Z,66.10
2017-11-30T02:42:45.992Z,66.10
2017-11-30T02:45:14.800Z,65.90
2017-11-30T02:47:42.403Z,65.90
2017-11-30T02:50:10.647Z,65.70
2017-11-30T02:52:38.173Z,65.70
2017-11-30T02:55:06.224Z,65.80
2017-11-30T02:57:34.023Z,65.90
2017-11-30T03:00:02.550Z,65.90
2017-11-30T03:02:30.147Z,65.90
2017-11-30T03:04:57.699Z,65.80
2017-11-30T03:07:25.280Z,66.30
2017-11-30T03:09:54.039Z,65.50
2017-11-30T03:12:22.776Z,65.40
2017-11-30T03:14:50.342Z,65.40
2017-11-30T03:17:18.038Z,65.50
2017-11-30T03:19:45.565Z,65.40
2017-11-30T03:22:13.883Z,65.40
2017-11-30T03:24:42.287Z,65.40
2017-11-30T03:27:10.248Z,65.30
2017-11-30T03:29:37.790Z,65.20
2017-11-30T03:32:05.373Z,65.50
2017-11-30T03:34:32.884Z,65.60
2017-11-30T03:37:01.162Z,66.90
2017-11-30T03:39:28.756Z,66.10
2017-11-30T03:41:56.334Z,66.00
2017-11-30T03:44:23.884Z,66.10
2017-11-30T03:46:51.449Z,66.40
2017-11-30T03:49:19.048Z,66.90
2017-11-30T03:51:46.647Z,67.10
2017-11-30T03:54:14.195Z,67.20
2017-11-30T03:56:41.736Z,67.20
2017-11-30T03:59:10.182Z,67.00
2017-11-30T04:01:37.721Z,67.00
2017-11-30T04:04:05.291Z,66.90
2017-11-30T04:06:33.279Z,67.20
2017-11-30T04:09:01.861Z,67.30
2017-11-30T04:11:29.388Z,67.40
2017-11-30T04:13:57.230Z,67.50
2017-11-30T04:16:24.759Z,67.90
2017-11-30T04:18:52.304Z,68.10
2017-11-30T04:21:19.880Z,68.40
2017-11-30T04:23:47.397Z,68.70
2017-11-30T04:26:14.967Z,69.10
2017-11-30T04:28:42.525Z,69.20
2017-11-30T04:31:10.036Z,69.10
2017-11-30T04:33:38.363Z,68.50
2017-11-30T04:36:05.943Z,68.50
2017-11-30T04:38:33.475Z,68.30
2017-11-30T04:41:02.247Z,68.40
2017-11-30T04:43:29.776Z,68.20
2017-11-30T04:45:58.617Z,68.40
2017-11-30T04:48:26.191Z,68.40
2017-11-30T04:50:53.731Z,68.50
2017-11-30T04:53:22.021Z,69.00
2017-11-30T04:55:49.570Z,68.80
2017-11-30T04:58:17.132Z,69.10
2017-11-30T05:00:44.688Z,68.90
2017-11-30T05:03:12.281Z,68.80
2017-11-30T05:05:40.731Z,68.80
2017-11-30T05:08:08.255Z,68.80
2017-11-30T05:10:36.492Z,68.70
2017-11-30T05:13:04.539Z,68.40
2017-11-30T05:15:34.265Z,68.60
2017-11-30T05:18:01.814Z,68.50
2017-11-30T05:20:29.605Z,68.10
2017-11-30T05:22:57.711Z,68.00
2017-11-30T05:25:25.266Z,67.90
2017-11-30T05:27:52.810Z,67.90
2017-11-30T05:30:21.861Z,67.80
2017-11-30T05:32:49.434Z,67.80
2017-11-30T05:35:17.953Z,68.10
2017-11-30T05:37:46.303Z,68.20
2017-11-30T05:40:16.095Z,67.90
2017-11-30T05:42:43.622Z,67.90
2017-11-30T05:45:11.203Z,68.40
2017-11-30T05:47:40.617Z,68.30
2017-11-30T05:50:09.747Z,68.30
2017-11-30T05:52:37.289Z,68.00
2017-11-30T05:55:04.934Z,68.20
2017-11-30T05:57:32.461Z,68.30
2017-11-30T06:00:00.025Z,68.10
2017-11-30T06:02:27.577Z,68.30
2017-11-30T06:04:56.536Z,68.50
2017-11-30T06:07:24.093Z,68.50
2017-11-30T06:09:52.489Z,68.30
2017-11-30T06:12:20.072Z,69.10
2017-11-30T06:14:48.200Z,68.40
2017-11-30T06:17:16.118Z,68.30
2017-11-30T06:19:43.639Z,68.80
2017-11-30T06:22:11.178Z,68.80
2017-11-30T06:24:38.740Z,69.20
2017-11-30T06:27:08.306Z,69.30
2017-11-30T06:29:36.644Z,69.50
2017-11-30T06:32:04.964Z,69.00
2017-11-30T06:34:32.494Z,69.00
2017-11-30T06:37:01.079Z,69.00
2017-11-30T06:39:29.368Z,69.10
2017-11-30T06:41:56.952Z,69.00
2017-11-30T06:44:24.488Z,68.80
2017-11-30T06:46:52.052Z,68.80
2017-11-30T06:49:19.609Z,68.70
2017-11-30T06:51:47.175Z,69.10
2017-11-30T06:54:14.727Z,68.90
2017-11-30T06:56:42.276Z,68.80
2017-11-30T06:59:09.859Z,68.60
2017-11-30T07:01:37.425Z,68.60
2017-11-30T07:04:04.989Z,68.20
2017-11-30T07:06:32.509Z,68.60
2017-11-30T07:09:00.035Z,69.10
2017-11-30T07:11:27.577Z,69.00
2017-11-30T07:13:55.125Z,68.90
2017-11-30T07:16:22.965Z,68.80
2017-11-30T07:18:50.558Z,68.80
2017-11-30T07:21:18.076Z,68.90
2017-11-30T07:23:45.629Z,68.60
2017-11-30T07:26:13.222Z,68.70
2017-11-30T07:28:40.745Z,68.60
2017-11-30T07:31:08.326Z,68.50
2017-11-30T07:33:35.855Z,68.30
2017-11-30T07:36:03.399Z,68.20
2017-11-30T07:38:30.966Z,68.50
2017-11-30T07:40:58.503Z,68.20
2017-11-30T07:43:26.049Z,68.20
2017-11-30T07:45:53.630Z,68.00
2017-11-30T07:48:21.206Z,68.30
2017-11-30T07:50:48.736Z,68.30
2017-11-30T07:53:16.260Z,68.50
2017-11-30T07:55:43.800Z,68.20
2017-11-30T07:58:11.353Z,67.90
2017-11-30T08:00:39.621Z,68.00
2017-11-30T08:03:07.156Z,68.00
2017-11-30T08:05:34.663Z,68.10
2017-11-30T08:08:02.921Z,67.80
2017-11-30T08:10:31.267Z,67.50
2017-11-30T08:12:58.770Z,67.40
2017-11-30T08:15:26.342Z,67.80
2017-11-30T08:17:53.853Z,67.90
2017-11-30T08:20:21.374Z,67.90
2017-11-30T08:22:48.952Z,68.00
2017-11-30T08:25:16.540Z,68.00
2017-11-30T08:27:44.108Z,68.00
2017-11-30T08:30:11.617Z,68.40
2017-11-30T08:32:39.199Z,69.20
2017-11-30T08:35:06.814Z,68.30
2017-11-30T08:37:35.781Z,68.90
2017-11-30T08:40:03.310Z,68.90
2017-11-30T08:42:30.870Z,68.90
2017-11-30T08:44:58.426Z,68.60
2017-11-30T08:47:25.967Z,69.10
2017-11-30T08:49:53.531Z,69.50
2017-11-30T08:52:21.173Z,69.20
2017-11-30T08:54:48.772Z,69.20
2017-11-30T08:57:16.624Z,69.10
2017-11-30T08:59:44.208Z,69.40
2017-11-30T09:02:11.779Z,69.40
2017-11-30T09:04:39.344Z,68.60
2017-11-30T09:07:07.419Z,67.90
2017-11-30T09:09:35.262Z,68.00
2017-11-30T09:12:02.944Z,67.30
2017-11-30T09:14:32.642Z,67.30
2017-11-30T09:17:01.100Z,67.30
2017-11-30T09:19:28.755Z,67.50
2017-11-30T09:21:56.515Z,67.60
2017-11-30T09:24:24.048Z,66.90
2017-11-30T09:26:52.119Z,66.80
2017-11-30T09:29:20.711Z,67.60
2017-11-30T09:31:52.136Z,67.50
2017-11-30T09:34:20.538Z,67.50
2017-11-30T09:36:48.470Z,68.00
2017-11-30T09:39:17.566Z,67.70
2017-11-30T09:41:45.442Z,67.50
2017-11-30T09:44:13.814Z,68.20
2017-11-30T09:46:42.116Z,67.60
2017-11-30T09:49:10.442Z,67.30
2017-11-30T09:51:39.025Z,67.30
2017-11-30T09:54:06.587Z,67.70
2017-11-30T09:56:34.144Z,67.70
2017-11-30T09:59:01.735Z,67.30
2017-11-30T10:01:29.434Z,67.30
2017-11-30T10:03:56.965Z,67.20
2017-11-30T10:06:25.313Z,67.40
2017-11-30T10:08:52.883Z,67.00
2017-11-30T10:11:20.412Z,67.30
2017-11-30T10:13:49.515Z,67.20
2017-11-30T10:16:17.025Z,67.00
2017-11-30T10:18:44.548Z,66.40
2017-11-30T10:21:12.363Z,66.40
2017-11-30T10:23:39.897Z,67.00
2017-11-30T10:26:07.948Z,66.20
2017-11-30T10:28:35.523Z,65.70
2017-11-30T10:31:03.126Z,66.50
2017-11-30T10:33:30.689Z,66.40
2017-11-30T10:35:58.293Z,66.50
2017-11-30T10:38:26.511Z,66.70
2017-11-30T10:40:54.049Z,66.60
2017-11-30T10:43:22.365Z,67.30
2017-11-30T10:45:51.163Z,67.20
2017-11-30T10:48:18.706Z,67.00
2017-11-30T10:50:46.998Z,67.50
2017-11-30T10:53:14.762Z,67.60
2017-11-30T10:55:42.860Z,67.40
2017-11-30T10:58:10.433Z,67.90
2017-11-30T11:00:39.590Z,67.20
2017-11-30T11:03:07.109Z,67.20
2017-11-30T11:05:34.648Z,67.30
2017-11-30T11:08:02.224Z,67.10
2017-11-30T11:10:30.762Z,66.30
2017-11-30T11:12:58.302Z,66.20
2017-11-30T11:15:25.877Z,66.50
2017-11-30T11:17:53.991Z,66.70
2017-11-30T11:20:21.905Z,67.00
2017-11-30T11:22:50.186Z,67.30
2017-11-30T11:25:18.081Z,68.30
2017-11-30T11:27:46.539Z,68.60
2017-11-30T11:30:14.065Z,68.70
2017-11-30T11:32:43.632Z,69.70
2017-11-30T11:35:11.201Z,69.70
2017-11-30T11:37:39.758Z,69.90
2017-11-30T11:40:09.395Z,69.80
2017-11-30T11:42:37.273Z,69.80
2017-11-30T11:45:05.893Z,69.50
2017-11-30T11:47:34.324Z,69.50
2017-11-30T11:50:03.814Z,69.70
2017-11-30T11:52:32.040Z,69.50
2017-11-30T11:54:59.638Z,69.70
2017-11-30T11:57:28.556Z,69.70
2017-11-30T11:59:56.177Z,69.60
2017-11-30T12:02:23.677Z,68.90
2017-11-30T12:04:51.315Z,69.10
2017-11-30T12:07:18.838Z,69.00
2017-11-30T12:09:46.949Z,69.80
2017-11-30T12:12:14.492Z,69.80
2017-11-30T12:14:42.013Z,69.70
2017-11-30T12:17:09.720Z,69.90
2017-11-30T12:19:38.103Z,70.10
2017-11-30T12:22:06.206Z,70.00
2017-11-30T12:24:34.413Z,70.60
2017-11-30T12:27:03.618Z,70.80
2017-11-30T12:29:31.916Z,70.60
2017-11-30T12:32:02.136Z,70.80
2017-11-30T12:34:29.648Z,71.00
2017-11-30T12:36:57.232Z,71.10
2017-11-30T12:39:25.029Z,71.20
2017-11-30T12:41:53.633Z,72.50
2017-11-30T12:44:23.651Z,71.90
2017-11-30T12:46:51.983Z,71.90
2017-11-30T12:49:19.641Z,72.00
2017-11-30T12:51:47.841Z,72.30
2017-11-30T12:54:15.621Z,72.30
2017-11-30T12:56:44.571Z,72.20
2017-11-30T12:59:12.136Z,71.90
2017-11-30T13:01:40.600Z,72.80
2017-11-30T13:04:08.177Z,72.50
2017-11-30T13:06:35.691Z,72.70
2017-11-30T13:09:03.331Z,73.00
2017-11-30T13:11:30.958Z,73.10
2017-11-30T13:13:58.550Z,73.60
2017-11-30T13:16:26.140Z,74.10
2017-11-30T13:18:53.763Z,74.10
2017-11-30T13:21:21.317Z,73.50
2017-11-30T13:23:48.889Z,73.00
2017-11-30T13:26:16.438Z,73.00
2017-11-30T13:28:44.047Z,72.70
2017-11-30T13:31:14.103Z,73.30
2017-11-30T13:33:41.708Z,73.30
2017-11-30T13:36:09.359Z,73.10
2017-11-30T13:38:36.894Z,72.80
2017-11-30T13:41:04.483Z,73.30
2017-11-30T13:43:32.035Z,73.90
2017-11-30T13:46:00.238Z,74.10
2017-11-30T13:48:27.825Z,74.00
2017-11-30T13:50:55.357Z,73.70
2017-11-30T13:53:22.971Z,73.80
2017-11-30T13:55:50.573Z,73.70
2017-11-30T13:58:20.903Z,74.00
2017-11-30T14:00:48.636Z,74.00
2017-11-30T14:03:16.457Z,73.80
2017-11-30T14:05:44.873Z,74.00
2017-11-30T14:08:13.407Z,74.00
2017-11-30T14:10:41.512Z,73.80
2017-11-30T14:13:10.248Z,73.30
2017-11-30T14:15:37.806Z,73.30
2017-11-30T14:18:05.437Z,73.70
2017-11-30T14:20:34.349Z,73.10
2017-11-30T14:23:03.198Z,73.00
2017-11-30T14:25:31.610Z,73.20
2017-11-30T14:27:59.861Z,73.10
2017-11-30T14:30:28.407Z,73.20
2017-11-30T14:32:57.361Z,73.30
2017-11-30T14:35:25.150Z,73.30
2017-11-30T14:37:52.999Z,73.40
2017-11-30T14:40:21.311Z,73.20
2017-11-30T14:42:48.952Z,73.60
2017-11-30T14:45:17.518Z,74.20
2017-11-30T14:47:46.010Z,73.50
2017-11-30T14:50:15.041Z,73.90
2017-11-30T14:52:43.391Z,74.40
2017-11-30T14:55:12.012Z,74.40
2017-11-30T14:57:40.681Z,74.50
2017-11-30T15:00:08.628Z,74.30
2017-11-30T15:02:37.336Z,75.20
2017-11-30T15:05:05.012Z,74.30
2017-11-30T15:07:32.668Z,74.30
2017-11-30T15:10:00.954Z,73.50
2017-11-30T15:12:29.311Z,73.70
2017-11-30T15:14:57.038Z,73.70
2017-11-30T15:17:25.478Z,73.10
2017-11-30T15:19:53.884Z,73.40
2017-11-30T15:22:22.418Z,73.40
2017-11-30T15:24:50.524Z,73.50
2017-11-30T15:27:19.757Z,73.20
2017-11-30T15:29:49.484Z,73.60
2017-11-30T15:32:17.602Z,73.40
2017-11-30T15:34:45.978Z,72.20
2017-11-30T15:37:14.136Z,72.20
2017-11-30T15:39:42.996Z,71.30
2017-11-30T15:42:10.939Z,71.10
2017-11-30T15:44:38.670Z,70.60
2017-11-30T15:47:08.732Z,71.00
2017-11-30T15:49:37.658Z,71.00
2017-11-30T15:52:06.022Z,70.80
2017-11-30T15:54:34.799Z,70.20
2017-11-30T15:57:02.538Z,70.20
2017-11-30T15:59:31.916Z,70.10
2017-11-30T16:02:06.570Z,69.70
2017-11-30T16:04:36.877Z,70.50
2017-11-30T16:07:04.798Z,70.30
2017-11-30T16:09:35.120Z,70.10
2017-11-30T16:12:04.279Z,69.40
2017-11-30T16:14:34.222Z,69.50
2017-11-30T16:17:10.570Z,69.30
2017-11-30T16:19:39.739Z,69.70
2017-11-30T16:22:09.616Z,69.40
2017-11-30T16:24:38.662Z,69.40
2017-11-30T16:27:06.228Z,69.20
2017-11-30T16:29:33.766Z,69.10
2017-11-30T16:32:01.831Z,69.40
2017-11-30T16:34:30.047Z,68.70
2017-11-30T16:36:57.613Z,69.20
2017-11-30T16:39:26.612Z,68.90
2017-11-30T16:41:54.634Z,68.40
2017-11-30T16:44:22.908Z,67.80
2017-11-30T16:46:50.528Z,67.80
2017-11-30T16:49:18.269Z,67.80
2017-11-30T16:51:45.799Z,67.90
2017-11-30T16:54:14.524Z,67.40
2017-11-30T16:56:42.194Z,67.00
2017-11-30T16:59:09.797Z,66.90
2017-11-30T17:01:38.722Z,67.10
2017-11-30T17:04:07.028Z,67.00
2017-11-30T17:06:34.580Z,66.60
2017-11-30T17:09:02.825Z,66.40
2017-11-30T17:11:30.591Z,66.10
2017-11-30T17:13:58.360Z,66.50
2017-11-30T17:16:27.033Z,66.60
2017-11-30T17:18:54.713Z,66.90
2017-11-30T17:21:22.327Z,66.70
2017-11-30T17:23:50.850Z,66.50
2017-11-30T17:26:18.883Z,67.20
2017-11-30T17:28:48.915Z,67.20
2017-11-30T17:31:16.600Z,66.90
2017-11-30T17:33:44.265Z,66.90
2017-11-30T17:36:12.692Z,66.70
2017-11-30T17:38:43.924Z,67.20
2017-11-30T17:41:13.560Z,67.50
2017-11-30T17:43:41.106Z,67.50
2017-11-30T17:46:12.828Z,67.40
2017-11-30T17:48:40.394Z,67.40
2017-11-30T17:51:07.995Z,67.50
2017-11-30T17:53:35.596Z,67.50
2017-11-30T17:56:07.479Z,67.30
2017-11-30T17:58:35.645Z,67.30
2017-11-30T18:01:03.368Z,67.20
2017-11-30T18:03:33.628Z,67.70
2017-11-30T18:06:01.236Z,67.70
2017-11-30T18:11:03.688Z,68.50
2017-11-30T18:13:31.249Z,68.70
2017-11-30T18:15:59.121Z,68.00
2017-11-30T18:18:26.688Z,68.20
2017-11-30T18:20:54.461Z,68.10
2017-11-30T18:23:21.967Z,68.80
2017-11-30T18:25:49.628Z,68.20
2017-11-30T18:28:17.197Z,68.20
2017-11-30T18:30:44.738Z,68.00
2017-11-30T18:33:13.829Z,67.60
2017-11-30T18:35:41.430Z,67.60
2017-11-30T18:38:09.112Z,67.60
2017-11-30T18:40:36.719Z,67.70
2017-11-30T18:43:04.429Z,67.60
2017-11-30T18:45:33.217Z,67.70
2017-11-30T18:48:00.843Z,67.90
2017-11-30T18:50:28.641Z,67.60
2017-11-30T18:52:56.285Z,67.40
2017-11-30T18:55:24.062Z,67.50
2017-11-30T18:57:51.636Z,67.30
2017-11-30T19:00:19.400Z,67.30
2017-11-30T19:02:46.966Z,66.80
2017-11-30T19:05:14.612Z,66.50
2017-11-30T19:07:42.165Z,66.60
2017-11-30T19:10:09.756Z,66.60
2017-11-30T19:12:37.693Z,66.80
2017-11-30T19:15:06.101Z,65.90
2017-11-30T19:17:33.852Z,65.80
2017-11-30T19:20:01.414Z,66.20
2017-11-30T19:22:28.955Z,65.70
2017-11-30T19:24:56.491Z,65.50
2017-11-30T19:27:24.836Z,65.60
2017-11-30T19:29:52.372Z,65.60
2017-11-30T19:32:20.120Z,65.50
2017-11-30T19:34:47.799Z,65.50
2017-11-30T19:37:15.333Z,65.40
2017-11-30T19:39:42.860Z,65.10
2017-11-30T19:42:11.166Z,65.70
2017-11-30T19:44:38.710Z,65.40
2017-11-30T19:47:06.339Z,65.70
2017-11-30T19:49:33.889Z,65.50
2017-11-30T19:52:01.442Z,65.50
2017-11-30T19:54:29.076Z,65.30
2017-11-30T19:56:56.645Z,65.20
2017-11-30T19:59:25.743Z,65.20
2017-11-30T20:01:53.274Z,65.10
2017-11-30T20:04:21.407Z,64.90
2017-11-30T20:06:49.804Z,63.90
2017-11-30T20:09:17.437Z,63.80
2017-11-30T20:11:44.999Z,63.50
2017-11-30T20:14:12.852Z,63.80
2017-11-30T20:16:40.445Z,63.60
2017-11-30T20:19:07.990Z,63.50
2017-11-30T20:21:35.572Z,63.60
2017-11-30T20:24:04.029Z,63.60
2017-11-30T20:26:31.621Z,63.60
2017-11-30T20:28:59.183Z,64.40
2017-11-30T20:31:27.509Z,63.30
2017-11-30T20:33:55.075Z,63.30
2017-11-30T20:36:22.656Z,62.60
2017-11-30T20:38:50.209Z,62.80
2017-11-30T20:41:18.247Z,62.90
2017-11-30T20:43:45.857Z,63.30
2017-11-30T20:46:13.395Z,63.50
2017-11-30T20:48:41.346Z,63.20
2017-11-30T20:51:08.933Z,63.50
2017-11-30T20:53:36.518Z,63.10
2017-11-30T20:56:04.837Z,62.50
2017-11-30T20:58:32.390Z,62.50
2017-11-30T21:00:59.957Z,63.00
2017-11-30T21:03:27.475Z,63.20
2017-11-30T21:05:55.019Z,62.90
2017-11-30T21:08:22.728Z,62.60
2017-11-30T21:10:50.325Z,62.40
2017-11-30T21:13:18.220Z,63.00
2017-11-30T21:15:46.818Z,62.20
2017-11-30T21:18:14.640Z,62.20
2017-11-30T21:20:42.281Z,62.80
2017-11-30T21:23:10.098Z,62.90
2017-11-30T21:25:38.443Z,62.80
2017-11-30T21:28:05.941Z,62.70
2017-11-30T21:30:34.278Z,62.20
2017-11-30T21:33:01.881Z,62.10
2017-11-30T21:35:29.439Z,62.40
2017-11-30T21:37:57.852Z,62.20
2017-11-30T21:40:25.430Z,62.20
2017-11-30T21:42:53.044Z,62.30
2017-11-30T21:45:20.826Z,63.30
2017-11-30T21:47:48.404Z,62.60
2017-11-30T21:50:15.944Z,62.40
2017-11-30T21:52:43.505Z,62.00
2017-11-30T21:55:11.145Z,61.90
2017-11-30T21:57:39.601Z,61.60
2017-11-30T22:00:07.114Z,61.90
2017-11-30T22:02:34.688Z,61.60
2017-11-30T22:05:02.272Z,61.60
2017-11-30T22:07:29.800Z,61.10
2017-11-30T22:09:57.362Z,61.20
2017-11-30T22:12:24.897Z,61.30
2017-11-30T22:14:52.458Z,61.20
2017-11-30T22:17:20.089Z,61.40
2017-11-30T22:19:48.417Z,61.50
2017-11-30T22:22:17.769Z,61.50
2017-11-30T22:24:45.300Z,61.40
2017-11-30T22:27:12.874Z,61.30
2017-11-30T22:29:40.630Z,61.80
2017-11-30T22:32:08.255Z,61.90
2017-11-30T22:34:36.034Z,62.20
2017-11-30T22:49:58.757Z,62.30
2017-11-30T22:52:27.126Z,63.80
2017-11-30T22:54:54.661Z,63.80
2017-11-30T22:57:23.021Z,63.40
2017-11-30T22:59:51.356Z,63.40
2017-11-30T23:02:18.885Z,62.80
2017-11-30T23:04:48.050Z,62.70
2017-11-30T23:07:15.656Z,62.60
2017-11-30T23:09:43.247Z,62.20
2017-11-30T23:12:11.050Z,61.90
2017-11-30T23:14:38.566Z,62.10
2017-11-30T23:17:06.823Z,62.40
2017-11-30T23:19:35.130Z,62.40
2017-11-30T23:22:03.586Z,62.40
2017-11-30T23:24:31.152Z,62.50
2017-11-30T23:39:54.800Z,63.30
2017-11-30T23:42:22.357Z,63.20
2017-11-30T23:44:50.052Z,63.20
2017-11-30T23:47:17.809Z,63.20
2017-11-30T23:49:46.840Z,63.30
2017-11-30T23:52:14.850Z,62.70
2017-11-30T23:54:42.677Z,62.90
2017-11-30T23:57:10.522Z,62.70
2017-11-30T23:59:38.161Z,62.60
